»·PEaware :: DAL1582 KSLC-KDEN

DAL1582 :: KSLC-KDEN

FLIGHT INFORMATION

Flight Status: Arrived
Operator:
Delta Air Lines
More flights by this operator :: More flights under this callsign
Pilot: Alfredo R. (12181)
Aircraft: BOEING 737-800
(B738)
More flights by this aircraft type
Origin: KSLC Salt Lake City Intl
United States
Destination: KDEN Denver Intl
United States
More flights between these airports :: More routes between these airports
Route: +RUGGD1 PERTY KAMPR LONGZ1
File this flight plan on PilotEdge
Remarks: RMK / SIMBRIEF
Altitude:
(Current/Filed)
37,000ft
Speed:
(Current/Filed)
449kts
Departed: 30-Oct-20 07:04 PM
Arrived: 30-Oct-20 08:03 PM
Distance/Time
Traveled:
339nm/0:59
Distance/Time
To Go:
Arrived

Flight Plot

Page will automatically refresh every two minutes.

Flight plan parsing failed; only flown route is shown


Map Options




Map Legend


Flown Route
Filed Route
Departure Airport
Arrival Airport
Navaid (VOR, NDB)
Fix

Horizontal Profiles

Position Reports

Time Latitude Longitude Heading Altitude Ground
Speed
30-Oct-20 18:08 40.786675 -111.979826 162 4237ft 0kts
30-Oct-20 18:09 40.786675 -111.979826 162 4237ft 0kts
30-Oct-20 18:10 40.786675 -111.979826 162 4237ft 0kts
30-Oct-20 18:11 40.786675 -111.979826 162 4237ft 0kts
30-Oct-20 18:12 40.786675 -111.979826 162 4237ft 0kts
30-Oct-20 18:13 40.786675 -111.979826 162 4237ft 0kts
30-Oct-20 18:14 40.786675 -111.979826 162 4237ft 0kts
30-Oct-20 18:15 40.786675 -111.979826 162 4237ft 0kts
30-Oct-20 18:16 40.786675 -111.979826 162 4237ft 0kts
30-Oct-20 18:17 40.786675 -111.979826 162 4237ft 0kts
30-Oct-20 18:18 40.786675 -111.979826 162 4237ft 0kts
30-Oct-20 18:19 40.786675 -111.979826 162 4237ft 0kts
30-Oct-20 18:20 40.786675 -111.979826 162 4237ft 0kts
30-Oct-20 18:21 40.786675 -111.979826 162 4237ft 0kts
30-Oct-20 18:22 40.786675 -111.979826 162 4237ft 0kts
30-Oct-20 18:23 40.786675 -111.979826 162 4237ft 0kts
30-Oct-20 18:24 40.786675 -111.979826 162 4237ft 0kts
30-Oct-20 18:25 40.786675 -111.979826 162 4237ft 0kts
30-Oct-20 18:26 40.786675 -111.979826 162 4237ft 0kts
30-Oct-20 18:27 40.786675 -111.979826 162 4237ft 0kts
30-Oct-20 18:28 40.786675 -111.979826 162 4237ft 0kts
30-Oct-20 18:29 40.786675 -111.979826 162 4237ft 0kts
30-Oct-20 18:30 40.786675 -111.979826 162 4237ft 0kts
30-Oct-20 18:31 40.786675 -111.979826 162 4237ft 0kts
30-Oct-20 18:32 40.786675 -111.979826 162 4237ft 0kts
30-Oct-20 18:33 40.786675 -111.979826 162 4237ft 0kts
30-Oct-20 18:34 40.786675 -111.979826 162 4237ft 0kts
30-Oct-20 18:35 40.786675 -111.979826 162 4237ft 0kts
30-Oct-20 18:36 40.786675 -111.979826 162 4237ft 0kts
30-Oct-20 18:37 40.786675 -111.979826 162 4237ft 0kts
30-Oct-20 18:38 40.786675 -111.979826 162 4237ft 0kts
30-Oct-20 18:39 40.786675 -111.979826 162 4237ft 0kts
30-Oct-20 18:40 40.786675 -111.979826 162 4237ft 0kts
30-Oct-20 18:41 40.786675 -111.979826 162 4237ft 0kts
30-Oct-20 18:42 40.786675 -111.979826 162 4237ft 0kts
30-Oct-20 18:43 40.786675 -111.979826 162 4237ft 0kts
30-Oct-20 18:44 40.786675 -111.979826 162 4237ft 0kts
30-Oct-20 18:45 40.786675 -111.979826 162 4237ft 0kts
30-Oct-20 18:46 40.787083 -111.979987 169 4237ft 2kts
30-Oct-20 18:47 40.787494 -111.980235 76 4237ft 2kts
30-Oct-20 18:48 40.788234 -111.979995 18 4237ft 5kts
30-Oct-20 18:49 40.788435 -111.979904 19 4237ft 0kts
30-Oct-20 18:50 40.788435 -111.979904 19 4237ft 0kts
30-Oct-20 18:51 40.789652 -111.979180 83 4237ft 9kts
30-Oct-20 18:52 40.789696 -111.978549 85 4237ft 0kts
30-Oct-20 18:53 40.789696 -111.978549 85 4237ft 0kts
30-Oct-20 18:54 40.789965 -111.977271 29 4237ft 9kts
30-Oct-20 18:55 40.794030 -111.977548 355 4237ft 18kts
30-Oct-20 18:56 40.798492 -111.978069 355 4237ft 13kts
30-Oct-20 18:57 40.802694 -111.978385 8 4237ft 13kts
30-Oct-20 18:58 40.806438 -111.978554 353 4237ft 11kts
30-Oct-20 18:59 40.807052 -111.978524 26 4237ft 0kts
30-Oct-20 19:00 40.807052 -111.978524 26 4237ft 0kts
30-Oct-20 19:01 40.807052 -111.978524 26 4237ft 0kts
30-Oct-20 19:02 40.805947 -111.976774 173 4237ft 27kts
30-Oct-20 19:03 40.775756 -111.973447 179 4654ft 176kts
30-Oct-20 19:04 40.742025 -112.020596 272 6540ft 236kts
30-Oct-20 19:05 40.783266 -112.095740 287 8729ft 271kts
30-Oct-20 19:06 40.811077 -112.172754 344 10762ft 273kts
30-Oct-20 19:07 40.891874 -112.125376 25 12559ft 358kts
30-Oct-20 19:08 40.982440 -112.061697 22 15666ft 373kts
30-Oct-20 19:09 41.073431 -111.994040 40 18657ft 395kts
30-Oct-20 19:10 41.107693 -111.871561 66 20843ft 421kts
30-Oct-20 19:11 41.100174 -111.718143 120 23178ft 443kts
30-Oct-20 19:12 41.024985 -111.587791 129 22974ft 436kts
30-Oct-20 19:13 40.947769 -111.461396 127 23160ft 445kts
30-Oct-20 19:14 40.900308 -111.314479 99 23380ft 441kts
30-Oct-20 19:15 40.881051 -111.156846 97 24904ft 458kts
30-Oct-20 19:16 40.861153 -110.989947 98 26752ft 466kts
30-Oct-20 19:17 40.840495 -110.818125 98 28193ft 480kts
30-Oct-20 19:18 40.819056 -110.641643 99 29733ft 487kts
30-Oct-20 19:19 40.797122 -110.464129 99 31394ft 488kts
30-Oct-20 19:20 40.775194 -110.288506 100 32997ft 486kts
30-Oct-20 19:21 40.752952 -110.112210 100 34401ft 485kts
30-Oct-20 19:22 40.735931 -109.935728 96 35776ft 483kts
30-Oct-20 19:23 40.723896 -109.758483 96 36902ft 484kts
30-Oct-20 19:24 40.711648 -109.579336 96 37152ft 492kts
30-Oct-20 19:25 40.699259 -109.400947 96 37186ft 485kts
30-Oct-20 19:26 40.686819 -109.224264 97 37159ft 487kts
30-Oct-20 19:27 40.673902 -109.045680 96 37155ft 485kts
30-Oct-20 19:28 40.661792 -108.868310 96 37163ft 483kts
30-Oct-20 19:29 40.650168 -108.691244 96 37177ft 482kts
30-Oct-20 19:30 40.638498 -108.514509 95 37174ft 483kts
30-Oct-20 19:31 40.626836 -108.341250 96 37172ft 483kts
30-Oct-20 19:32 40.614799 -108.164861 96 37189ft 483kts
30-Oct-20 19:33 40.602425 -107.988403 96 37182ft 483kts
30-Oct-20 19:34 40.589729 -107.811590 96 37183ft 483kts
30-Oct-20 19:35 40.576660 -107.636424 97 37182ft 482kts
30-Oct-20 19:36 40.562384 -107.460363 97 37185ft 482kts
30-Oct-20 19:37 40.549566 -107.294794 97 36738ft 459kts
30-Oct-20 19:38 40.536601 -107.127366 96 35250ft 464kts
30-Oct-20 19:39 40.523470 -106.960031 96 33615ft 460kts
30-Oct-20 19:41 40.510164 -106.793890 96 32081ft 458kts
30-Oct-20 19:42 40.496438 -106.625440 96 30557ft 469kts
30-Oct-20 19:43 40.481649 -106.456713 96 29000ft 464kts
30-Oct-20 19:44 40.466250 -106.292025 96 27432ft 451kts
30-Oct-20 19:45 40.452025 -106.136262 96 25874ft 440kts
30-Oct-20 19:46 40.438034 -105.978183 96 24271ft 428kts
30-Oct-20 19:47 40.418431 -105.824681 101 22658ft 419kts
30-Oct-20 19:48 40.395079 -105.676163 100 21057ft 402kts
30-Oct-20 19:49 40.372635 -105.535671 100 19415ft 380kts
30-Oct-20 19:50 40.351252 -105.402856 100 17737ft 361kts
30-Oct-20 19:51 40.332959 -105.275604 99 16079ft 353kts
30-Oct-20 19:52 40.316029 -105.149654 99 14475ft 346kts
30-Oct-20 19:53 40.299056 -105.025228 99 12882ft 341kts
30-Oct-20 19:54 40.282443 -104.905167 99 11316ft 328kts
30-Oct-20 19:55 40.266484 -104.791210 99 11003ft 313kts
30-Oct-20 19:56 40.211700 -104.734189 196 10714ft 253kts
30-Oct-20 19:57 40.146093 -104.706695 161 9600ft 243kts
30-Oct-20 19:58 40.081760 -104.693937 186 8487ft 232kts
30-Oct-20 19:58 40.032376 -104.694435 187 7886ft 198kts
30-Oct-20 20:00 39.969857 -104.695242 185 6807ft 187kts
30-Oct-20 20:00 39.930231 -104.695646 184 6122ft 150kts
30-Oct-20 20:02 39.886723 -104.696269 180 5441ft 79kts
30-Oct-20 20:02 39.877117 -104.695584 159 5441ft 34kts
30-Oct-20 20:04 39.874956 -104.686255 89 5441ft 28kts
30-Oct-20 20:04 39.874954 -104.685140 89 5441ft 0kts
30-Oct-20 20:06 39.874954 -104.685140 89 5441ft 0kts
30-Oct-20 20:06 39.874957 -104.684586 91 5441ft 12kts
30-Oct-20 20:07 39.871422 -104.683780 180 5441ft 18kts
30-Oct-20 20:08 39.866836 -104.683832 180 5441ft 17kts
30-Oct-20 20:09 39.862064 -104.683878 180 5441ft 18kts
30-Oct-20 20:10 39.859473 -104.681871 180 5441ft 14kts
30-Oct-20 20:11 39.855972 -104.680513 92 5441ft 12kts
30-Oct-20 20:12 39.855267 -104.677312 147 5441ft 3kts
30-Oct-20 20:13 39.854629 -104.677130 181 5441ft 1kts
30-Oct-20 20:14 39.854447 -104.677141 182 5441ft 0kts
30-Oct-20 20:15 39.854447 -104.677141 182 5441ft 0kts

Navigation Log

Ident Type
Flight plan parsing failed, navigation log unavailable